Flight Track Log - Related Links

Times and Time Zones

All times are in EDT time to prevent confusion due to time zone crossing. See the ASQ5941 flight status page for this flight to view local times or setup timezone preferences in your user account.

Time Position Orientation Groundspeed Altitude Reporting Facility
EDT Latitude Longitude Course Direction KTS MPH feet Rate Location/Type
Tue 02:57:39 PM 42.0000 -87.9500 77° East 180 207 1,700  Level Chicago TRACON
Tue 02:58:45 PM 42.0667 -87.9167 20° North 242 278 3,800 2,013 Climbing Chicago TRACON
Tue 03:00:17 PM 42.1372 -87.8422 38° Northeast 254 292 7,000 1,831 Climbing Chicago Center
Tue 03:01:19 PM 42.1628 -87.7411 71° East 275 316 8,500 1,597 Climbing Chicago Center
Tue 03:02:21 PM 42.1575 -87.6347 94° East 287 330 10,300 1,645 Climbing Chicago Center
Tue 03:03:00 PM 42.0979 -87.0628 77° East  Level FlightAware Approximate
Tue 03:03:23 PM 42.1486 -87.5181 96° East 307 353 11,900  Level Chicago Center
Tue 03:04:25 PM 42.1394 -87.3986 96° East 322 371 12,600 677 Climbing Chicago Center
Tue 03:05:27 PM 42.1286 -87.2689 96° East 346 398 13,300 919 Climbing Chicago Center
Tue 03:06:29 PM 42.1236 -87.1314 93° East 365 420 14,500 1,548 Climbing Chicago Center
Tue 03:07:31 PM 42.1306 -86.9733 87° East 355 409 16,500 1,500 Climbing Chicago Center
Tue 03:08:33 PM 42.1361 -86.8433 87° East 351 404 17,600 823 Climbing Chicago Center
Tue 03:09:35 PM 42.1425 -86.7103 86° East 357 411 18,200 823 Climbing Chicago Center
Tue 03:10:37 PM 42.1472 -86.5753 87° East 367 422 19,300 1,056 Climbing Chicago Center
Tue 03:11:40 PM 42.1528 -86.4386 87° East 367 422 20,400 1,152 Climbing Chicago Center
Tue 03:12:42 PM 42.1592 -86.2692 87° East 376 433 21,700 1,113 Climbing Chicago Center
Tue 03:13:44 PM 42.1653 -86.1269 87° East 379 436 22,700 1,016 Climbing Chicago Center
Tue 03:14:46 PM 42.1692 -85.9853 88° East 379 436 23,800 1,016 Climbing Chicago Center
Tue 03:15:48 PM 42.1731 -85.8556 88° East 379 436 24,800 1,065 Climbing Chicago Center
Tue 03:16:50 PM 42.1797 -85.6872 87° East 377 434 26,000 1,113 Climbing Chicago Center
Tue 03:17:52 PM 42.1906 -85.5478 84° East 379 436 27,100 1,016 Climbing Chicago Center
Tue 03:18:54 PM 42.2206 -85.4122 73° East 379 436 28,100 1,016 Climbing Chicago Center
Tue 03:19:56 PM 42.2469 -85.2778 75° East 375 432 29,200 1,016 Climbing Chicago Center
Tue 03:20:58 PM 42.2753 -85.1394 74° East 383 441 30,200 987 Climbing Chicago Center
Tue 03:22:34 PM 42.3250 -84.9003 74° East 371 427 31,800 923 Climbing Cleveland Center
Tue 03:23:34 PM 42.3508 -84.7614 76° East 376 433 32,600 791 Climbing Cleveland Center
Tue 03:24:05 PM 42.3586 -84.6992 80° East 383 441 33,000 258 Climbing Chicago Center
Tue 03:25:07 PM 42.3850 -84.5558 76° East 391 450 33,000 48 Level Chicago Center
Tue 03:26:09 PM 42.4142 -84.4022 76° East 414 476 33,100 629 Climbing Chicago Center
Tue 03:27:11 PM 42.4494 -84.2178 75° East 422 486 34,300 919 Climbing Chicago Center
Tue 03:28:13 PM 42.4794 -84.0678 75° East 417 480 35,000 339 Climbing Chicago Center
Tue 03:29:15 PM 42.5083 -83.9125 76° East 423 487 35,000  Level Chicago Center
Tue 03:30:34 PM 42.5369 -83.6886 80° East 426 490 35,000  Level Cleveland Center
Tue 03:31:34 PM 42.5497 -83.5200 84° East 439 505 35,000  Level Cleveland Center
Tue 03:32:34 PM 42.5561 -83.3569 87° East 439 505 35,000  Level Cleveland Center
Tue 03:33:34 PM 42.5536 -83.1933 91° East 439 505 35,000  Level Cleveland Center
Tue 03:34:34 PM 42.5508 -83.0325 91° East 434 499 35,000  Level Cleveland Center
Tue 03:35:34 PM 42.5353 -82.8711 97° East 429 494 35,000  Level Cleveland Center
Tue 03:36:34 PM 42.5156 -82.7100 99° East 429 494 35,000  Level Cleveland Center
Tue 03:37:34 PM 42.4975 -82.5517 99° East 429 494 35,000  Level Cleveland Center
Tue 03:38:34 PM 42.4794 -82.3906 99° East 429 494 35,000  Level Cleveland Center
Tue 03:39:34 PM 42.4608 -82.2325 99° East 429 494 35,000  Level Cleveland Center
Tue 03:40:34 PM 42.4442 -82.0856 99° East 429 494 35,000  Level Cleveland Center
Tue 03:41:34 PM 42.4253 -81.9219 99° East 429 494 35,000  Level Cleveland Center
Tue 03:42:34 PM 42.4042 -81.7586 100° East 436 502 35,000  Level Cleveland Center
Tue 03:43:34 PM 42.3850 -81.5811 98° East 436 502 35,000  Level Cleveland Center
Tue 03:44:34 PM 42.3633 -81.4122 100° East 436 502 35,000  Level Cleveland Center
Tue 03:45:34 PM 42.3436 -81.2517 99° East 436 502 35,000  Level Cleveland Center
Tue 03:46:34 PM 42.3217 -81.0858 100° East 442 509 35,000  Level Cleveland Center
Tue 03:47:34 PM 42.3014 -80.9228 99° East 447 514 35,000  Level Cleveland Center
Tue 03:48:34 PM 42.2808 -80.7544 99° East 447 514 35,000  Level Cleveland Center
Tue 03:49:34 PM 42.2581 -80.5889 100° East 447 514 35,000  Level Cleveland Center
Tue 03:50:34 PM 42.2369 -80.4233 100° East 447 514 35,000  Level Cleveland Center
Tue 03:51:34 PM 42.2158 -80.2747 101° East 447 514 35,000  Level Cleveland Center
Tue 03:52:34 PM 42.1944 -80.1094 100° East 447 514 35,000  Level Cleveland Center
Tue 03:53:34 PM 42.1708 -79.9247 100° East 452 520 35,000  Level Cleveland Center
Tue 03:54:34 PM 42.1467 -79.7569 101° East 452 520 35,000  Level Cleveland Center
Tue 03:55:34 PM 42.1225 -79.5922 101° East 447 514 35,000  Level Cleveland Center
Tue 03:56:34 PM 42.1000 -79.4247 100° East 447 514 35,000 -250 Level Cleveland Center
Tue 03:57:34 PM 42.0753 -79.2572 101° East 453 521 34,500 -750 Descending Cleveland Center
Tue 03:58:34 PM 42.0503 -79.0928 102° East 453 521 33,500 -1,000 Descending Cleveland Center
Tue 03:59:34 PM 42.0294 -78.9256 99° East 448 516 32,500 -800 Descending Cleveland Center
Tue 04:00:34 PM 42.0039 -78.7642 102° East 448 516 31,900 -700 Descending Cleveland Center
Tue 04:01:34 PM 41.9806 -78.6000 101° East 448 516 31,100 -950 Descending Cleveland Center
Tue 04:02:34 PM 41.9544 -78.4333 102° East 448 516 30,000 -1,300 Descending Cleveland Center
Tue 04:03:34 PM 41.9283 -78.2611 101° East 453 521 28,500 -1,450 Descending Cleveland Center
Tue 04:04:34 PM 41.9017 -78.0944 102° East 453 521 27,100 -1,431 Descending Cleveland Center
Tue 04:05:44 PM 41.8733 -77.9103 102° East 450 518 25,400 -1,594 Descending New York Center
Tue 04:06:42 PM 41.8228 -77.7461 112° Southeast 465 535 23,700 -1,200 Descending New York Center
Tue 04:07:44 PM 41.7644 -77.6008 118° Southeast 459 528 23,000 -541 Descending New York Center
Tue 04:08:44 PM 41.7100 -77.4592 117° Southeast 448 516 22,600 -1,271 Descending New York Center
Tue 04:09:42 PM 41.6839 -77.2928 102° East 433 498 20,500 -2,017 Descending New York Center
Tue 04:10:43 PM 41.6672 -77.1411 98° East 433 498 18,600 -1,525 Descending New York Center
Tue 04:11:44 PM 41.6503 -76.9894 98° East 415 478 17,400 -1,160 Descending New York Center
Tue 04:12:42 PM 41.6331 -76.8353 98° East 415 478 16,300 -1,160 Descending New York Center
Tue 04:13:43 PM 41.6136 -76.6836 100° East 415 478 15,100 -1,131 Descending New York Center
Tue 04:14:44 PM 41.5981 -76.5381 98° East 410 472 14,000 -1,240 Descending New York Center
Tue 04:15:44 PM 41.5833 -76.4092 99° East 397 457 12,600 -1,576 Descending New York Center
Tue 04:16:42 PM 41.5689 -76.2719 98° East 383 441 10,900 -1,462 Descending New York Center
Tue 04:17:43 PM 41.5478 -76.1400 102° East 341 392 9,700 -1,279 Descending New York Center
Tue 04:18:44 PM 41.5061 -76.0508 122° Southeast 300 345 8,300 -1,438 Descending New York Center
Tue 04:19:44 PM 41.4444 -75.9822 140° Southeast 280 322 6,800 -1,513 Descending New York Center
Tue 04:20:43 PM 41.3928 -75.9258 141° Southeast 280 322 5,300 -1,525 Descending New York Center

Login

Don't have an account? Register now (free) for customized features, flight alerts, and more!